Lake Alfred, Florida
Current Conditions -  °F | °C
As of 11:53 PM on Wednesday 26 Nov 2014 (Local Time) from KGIF Reporting Station
Clear Clear  
Wind Chill: 51°   Ceiling: Unl
Heat Index: 51°   Visibility: 10mi
Dew Point: 45°   Wind: 8mph
Humidity: 80%   Direction: 320°NW
Pressure: 30.23"   Gusts: NA
Location:  28.09°N, 81.72°W
Report Text: KGIF 270453Z AUTO 32007KT 10SM CLR 11/07 A3023 RMK AO2 SLP235 T01060072 402220100 $
Loading
Personal Weather Stations






























Interactive Weather Map New forecast layout! Learn more

10-Day Weather Forecast

Advertisements
Track Severe Weather on mobile